Sedona, AZ

9:32 PM MST on September 04, 2015 (GMT -0700)
APRSWXNET | | Change Station
CLOSE
Current Station
Personal Weather Station
Location: Sedona, AZ
Elevation: 4435 ft
Nearby Weather Stations

Elev 4435 ft 34.85 °N, 111.82 °W | Updated 7 days ago

Mostly Cloudy
Mostly Cloudy
64 °F
Feels Like 64 °F
N
6
Wind Variable Wind from SSE
Gusts mph

Today
High -- | Low -- °F
--% Chance of Precip.
Yesterday
High -- | Low -- °F
Precip. -- in
6:02 AM 6:49 PM
Waning Gibbous, 52% visible
Pressure 30.06 in
Visibility 10.0 miles
Clouds Scattered Clouds 4600 ft
Scattered Clouds 8000 ft
Overcast 11000 ft
Dew Point 57 °F
Humidity 77%
Rainfall in
Snow Depth Not available.
UV 0 out of 12
Pollen 5.60 out of 12
Air Quality Not available.
Flu Activity Not available.
METAR KSEZ 050415Z AUTO 15012G16KT 10SM SCT046 SCT080 OVC110 23/12 A3006 RMK AO2
Pressure 30.06 in
Visibility 10.0 miles
Clouds Scattered Clouds 4600 ft
Scattered Clouds 8000 ft
Overcast 11000 ft
Dew Point 57 °F
Humidity 77%
Rainfall in
Snow Depth Not available.
UV 0 out of 12
Pollen 5.60 out of 12
Air Quality Not available.
Flu Activity Not available.
METAR KSEZ 050415Z AUTO 15012G16KT 10SM SCT046 SCT080 OVC110 23/12 A3006 RMK AO2

10-Day Weather Forecast

×

Almanac

Astronomy

Sep. 04, 2015 Rise Set
Actual Time
Civil Twilight
Nautical Twilight
Astronomical Twilight
Moon
Length of Visible Light
Length of Day
Tomorrow will be .
, % of the Moon is Illuminated

Today's Extremes

State Highs State Lows

Community

WunderPhotos

Upload Photos

1,852,425 photos uploaded!

WunderBlogs® & News

Nearby

Air Quality

  Air Quality AQ Index Pollutant
Not available.

Snow Depth

Station Depth Elevation

Earthquake Activity

City Distance Mag. Time & Date
Minimum magnitude displayed is 2.5.

Coastal Water Temperatures

Place Temperature

Stations

Nearby Weather Stations

Station Location Temp. Windchill Dew Point Humidity Wind Precip. Elev Updated Type